Time;durP1;ratioP1;P1;durP2;ratioP2;P2;SDS_P1;SDS_P2;PMS_P1;PMS_P2;Temp;Humidity;BMP_temperature;BMP_pressure;BME280_temperature;BME280_humidity;BME280_pressure;Samples;Min_cycle;Max_cycle;Signal;HPM_P1;HPM_P2
2021/04/11 00:00:30;;;;;;;;;;;;;;;3.69;45.68;100285.67;1736090;82;20126;-67
2021/04/11 00:02:59;;;;;;;;;;;;;;;3.67;45.69;100291.47;1706673;84;20524;-67
2021/04/11 00:05:33;;;;;;;;;;;;;;;3.65;45.79;100297.73;1702369;84;20503;-67
2021/04/11 00:08:01;;;;;;;;;;;;;;;3.61;45.86;100299.67;1724805;82;20253;-68
2021/04/11 00:10:30;;;;;;;;;;;;;;;3.58;45.90;100300.31;1697120;84;20147;-66
2021/04/11 00:12:59;;;;;;;;;;;;;;;3.55;46.01;100307.85;1715992;83;20159;-66
2021/04/11 00:15:28;;;;;;;;;;;;;;;3.51;46.07;100306.34;1728578;82;20150;-66
2021/04/11 00:17:55;;;;;;;;;;;;;;;3.49;46.13;100304.29;1731315;82;20130;-68
2021/04/11 00:20:23;;;;;;;;;;;;;;;3.47;46.14;100311.37;1708451;84;20148;-66
2021/04/11 00:22:51;;;;;;;;;;;;;;;3.45;46.05;100302.78;1704231;84;20169;-69
2021/04/11 00:25:28;;;;;;;;;;;;;;;3.46;45.98;100306.62;1697452;83;20243;-68
2021/04/11 00:27:57;;;;;;;;;;;;;;;3.44;45.79;100309.80;1723783;83;20127;-66
2021/04/11 00:30:26;;;;;;;;;;;;;;;3.43;45.72;100302.86;1706956;84;20263;-66
2021/04/11 00:32:57;;;;;;;;;;;;;;;3.48;45.50;100307.84;1695657;83;20146;-66
2021/04/11 00:35:25;;;;;;;;;;;;;;;3.53;45.46;100301.87;1714945;84;20432;-66
2021/04/11 00:37:52;;;;;;;;;;;;;;;3.61;45.34;100306.21;1711654;83;20140;-68
2021/04/11 00:40:31;;;;;;;;;;;;;;;3.67;45.32;100305.84;1694300;83;20159;-68
2021/04/11 00:43:04;;;;;;;;;;;;;;;3.69;45.35;100311.83;1702109;83;20182;-68
2021/04/11 00:45:41;;;;;;;;;;;;;;;3.69;45.11;100312.31;1732081;81;20742;-68
2021/04/11 00:48:10;;;;;;;;;;;;;;;3.66;45.15;100317.23;1695257;83;20184;-68
2021/04/11 00:50:38;;;;;;;;;;;;;;;3.61;45.33;100316.67;1669360;84;20212;-68
2021/04/11 00:53:06;;;;;;;;;;;;;;;3.55;45.37;100321.41;1693844;84;20245;-68
2021/04/11 00:55:34;;;;;;;;;;;;;;;3.48;45.47;100317.84;1714709;83;20230;-68
2021/04/11 00:58:02;;;;;;;;;;;;;;;3.43;45.56;100317.25;1701030;82;20404;-68
2021/04/11 01:00:32;;;;;;;;;;;;;;;3.39;45.72;100321.44;1669116;83;20136;-68
2021/04/11 01:03:00;;;;;;;;;;;;;;;3.36;45.79;100317.69;1704896;83;20172;-68
2021/04/11 01:05:30;;;;;;;;;;;;;;;3.34;45.85;100319.07;1708902;83;20146;-68
2021/04/11 01:08:00;;;;;;;;;;;;;;;3.32;45.84;100314.87;1720289;83;20128;-68
2021/04/11 01:10:30;;;;;;;;;;;;;;;3.30;45.81;100319.70;1700239;83;20217;-67
2021/04/11 01:12:57;;;;;;;;;;;;;;;3.33;45.76;100312.62;1665863;84;20142;-68
2021/04/11 01:15:30;;;;;;;;;;;;;;;3.37;45.63;100319.38;1679973;84;20166;-68
2021/04/11 01:17:58;;;;;;;;;;;;;;;3.44;45.55;100310.23;1684055;83;20156;-68
2021/04/11 01:20:27;;;;;;;;;;;;;;;3.50;45.62;100312.52;1691398;84;20135;-68
2021/04/11 01:23:26;;;;;;;;;;;;;;;3.56;45.47;100314.78;1733617;82;20135;-68
2021/04/11 01:25:57;;;;;;;;;;;;;;;3.59;45.30;100310.70;1724765;82;20198;-68
2021/04/11 01:28:37;;;;;;;;;;;;;;;3.67;45.11;100312.39;1705435;84;20236;-68
2021/04/11 01:31:05;;;;;;;;;;;;;;;3.73;45.02;100316.90;1730731;83;20166;-68
2021/04/11 01:33:36;;;;;;;;;;;;;;;3.79;45.09;100302.14;1698680;84;20162;-68
2021/04/11 01:36:05;;;;;;;;;;;;;;;3.81;44.94;100308.96;1728314;82;20230;-68
2021/04/11 01:38:35;;;;;;;;;;;;;;;3.79;44.96;100305.59;1708087;83;20153;-68
2021/04/11 01:41:17;;;;;;;;;;;;;;;3.77;45.08;100318.40;1688551;84;20153;-68
2021/04/11 01:43:46;;;;;;;;;;;;;;;3.72;45.00;100316.51;1703815;83;20157;-68
2021/04/11 01:46:15;;;;;;;;;;;;;;;3.66;44.97;100314.61;1648370;84;21243;-68
2021/04/11 01:48:46;;;;;;;;;;;;;;;3.62;44.96;100318.81;1696780;84;20133;-68
2021/04/11 01:51:15;;;;;;;;;;;;;;;3.58;44.99;100310.77;1688774;84;20149;-68
2021/04/11 01:53:44;;;;;;;;;;;;;;;3.55;45.02;100313.55;1696491;84;20182;-68
2021/04/11 01:56:11;;;;;;;;;;;;;;;3.53;45.02;100317.56;1700469;84;20243;-68
2021/04/11 01:58:40;;;;;;;;;;;;;;;3.50;45.06;100315.97;1681051;84;20246;-68
2021/04/11 02:01:30;;;;;;;;;;;;;;;3.46;45.10;100323.62;1702027;84;20146;-68
2021/04/11 02:04:00;;;;;;;;;;;;;;;3.42;45.24;100327.34;1686889;83;20154;-67
2021/04/11 02:06:29;;;;;;;;;;;;;;;3.35;45.54;100322.08;1709001;83;20232;-67
2021/04/11 02:09:08;;;;;;;;;;;;;;;3.27;45.88;100329.05;1695276;84;20155;-67
2021/04/11 02:11:42;;;;;;;;;;;;;;;3.20;46.04;100330.31;1718041;83;20294;-68
2021/04/11 02:14:10;;;;;;;;;;;;;;;3.17;46.16;100330.95;1693464;84;20181;-67
2021/04/11 02:16:39;;;;;;;;;;;;;;;3.12;46.26;100324.65;1667791;84;20237;-67
2021/04/11 02:19:14;;;;;;;;;;;;;;;3.08;46.34;100331.81;1726682;83;20146;-67
2021/04/11 02:21:44;;;;;;;;;;;;;;;3.06;46.38;100333.67;1669754;84;20227;-67
2021/04/11 02:24:12;;;;;;;;;;;;;;;3.06;46.40;100331.05;1706058;82;20253;-67
2021/04/11 02:26:40;;;;;;;;;;;;;;;3.08;46.45;100330.98;1727754;83;20169;-68
2021/04/11 02:29:09;;;;;;;;;;;;;;;3.10;46.37;100338.27;1704131;83;20147;-68
2021/04/11 02:31:38;;;;;;;;;;;;;;;3.10;46.41;100335.21;1701269;84;20250;-67
2021/04/11 02:34:14;;;;;;;;;;;;;;;3.11;46.46;100343.89;1722850;82;20175;-67
2021/04/11 02:36:45;;;;;;;;;;;;;;;3.11;46.65;100338.19;1707155;83;20165;-68
2021/04/11 02:39:20;;;;;;;;;;;;;;;3.15;46.54;100339.34;1703983;84;20232;-67
2021/04/11 02:41:49;;;;;;;;;;;;;;;3.20;46.44;100345.13;1716927;82;20230;-67
2021/04/11 02:44:18;;;;;;;;;;;;;;;3.22;46.41;100346.75;1688096;84;20463;-68
2021/04/11 02:46:47;;;;;;;;;;;;;;;3.22;46.35;100349.84;1703115;83;20428;-68
2021/04/11 02:49:18;;;;;;;;;;;;;;;3.21;46.34;100348.97;1670644;84;20135;-68
2021/04/11 02:51:47;;;;;;;;;;;;;;;3.22;46.38;100356.38;1673128;84;20136;-68
2021/04/11 02:54:18;;;;;;;;;;;;;;;3.19;46.29;100355.22;1700362;84;20151;-67
2021/04/11 02:56:46;;;;;;;;;;;;;;;3.16;46.29;100359.30;1720312;82;20272;-68
2021/04/11 02:59:16;;;;;;;;;;;;;;;3.13;46.32;100364.25;1726987;82;20233;-67
2021/04/11 03:01:48;;;;;;;;;;;;;;;3.12;46.34;100362.55;1704624;83;20147;-67
2021/04/11 03:04:20;;;;;;;;;;;;;;;3.11;46.38;100360.88;1673920;84;20367;-68
2021/04/11 03:06:59;;;;;;;;;;;;;;;3.11;46.39;100360.88;1667775;83;20563;-67
2021/04/11 03:09:35;;;;;;;;;;;;;;;3.12;46.42;100362.55;1706654;84;20141;-68
2021/04/11 03:12:04;;;;;;;;;;;;;;;3.14;46.41;100361.99;1671074;84;20175;-68
2021/04/11 03:14:37;;;;;;;;;;;;;;;3.14;46.39;100374.23;1684421;83;20408;-67
2021/04/11 03:17:16;;;;;;;;;;;;;;;3.11;46.37;100370.02;1703863;84;20175;-68
2021/04/11 03:19:46;;;;;;;;;;;;;;;3.08;46.59;100378.02;1704723;83;20287;-67
2021/04/11 03:22:16;;;;;;;;;;;;;;;3.03;46.67;100382.64;1702557;84;20142;-67
2021/04/11 03:24:45;;;;;;;;;;;;;;;2.95;46.79;100388.28;1721383;82;20147;-68
2021/04/11 03:27:33;;;;;;;;;;;;;;;2.88;46.96;100388.23;1692574;84;20135;-67
2021/04/11 03:30:14;;;;;;;;;;;;;;;2.83;47.07;100402.85;1662779;83;20152;-67
2021/04/11 03:32:45;;;;;;;;;;;;;;;2.80;47.21;100401.70;1684079;84;20135;-67
2021/04/11 03:35:14;;;;;;;;;;;;;;;2.80;47.26;100396.47;1732820;82;20131;-67
2021/04/11 03:37:42;;;;;;;;;;;;;;;2.80;47.31;100403.47;1736438;82;20561;-67
2021/04/11 03:40:12;;;;;;;;;;;;;;;2.80;47.30;100408.70;1704136;83;20182;-67
2021/04/11 03:42:42;;;;;;;;;;;;;;;2.80;47.28;100408.23;1720406;82;20175;-67
2021/04/11 03:45:10;;;;;;;;;;;;;;;2.80;47.30;100410.84;1695089;82;20237;-68
2021/04/11 03:47:47;;;;;;;;;;;;;;;2.83;47.31;100413.77;1671902;84;20192;-68
2021/04/11 03:50:29;;;;;;;;;;;;;;;2.86;47.25;100413.59;1700148;84;20147;-67
2021/04/11 03:53:12;;;;;;;;;;;;;;;2.89;47.25;100423.89;1718069;83;20146;-67
2021/04/11 03:55:44;;;;;;;;;;;;;;;2.93;47.19;100424.11;1708240;83;20146;-67
2021/04/11 03:58:33;;;;;;;;;;;;;;;2.97;47.14;100430.02;1701093;84;20489;-67
2021/04/11 04:01:06;;;;;;;;;;;;;;;2.99;47.08;100435.53;1707537;84;20315;-67
2021/04/11 04:03:34;;;;;;;;;;;;;;;3.02;47.05;100440.61;1688106;84;20147;-67
2021/04/11 04:06:10;;;;;;;;;;;;;;;3.05;47.03;100443.06;1706910;84;20129;-67
2021/04/11 04:08:38;;;;;;;;;;;;;;;3.10;47.05;100444.98;1724184;83;20135;-68
2021/04/11 04:11:40;;;;;;;;;;;;;;;3.14;46.93;100440.87;1692911;84;20237;-68
2021/04/11 04:14:19;;;;;;;;;;;;;;;3.18;46.87;100449.80;1649736;84;20143;-69
2021/04/11 04:17:19;;;;;;;;;;;;;;;3.24;46.86;100446.84;1688184;83;20269;-68
2021/04/11 04:20:09;;;;;;;;;;;;;;;3.31;46.84;100452.56;1693080;84;20153;-68
2021/04/11 04:23:07;;;;;;;;;;;;;;;3.38;46.66;100452.62;1706469;84;20141;-68
2021/04/11 04:25:49;;;;;;;;;;;;;;;3.47;46.65;100460.44;1694476;84;20131;-68
2021/04/11 04:28:25;;;;;;;;;;;;;;;3.56;46.51;100463.03;1705319;83;20160;-68
2021/04/11 04:31:02;;;;;;;;;;;;;;;3.64;46.34;100468.20;1684367;84;20239;-67
2021/04/11 04:34:07;;;;;;;;;;;;;;;3.75;46.15;100472.01;1704754;83;20417;-67
2021/04/11 04:36:51;;;;;;;;;;;;;;;3.87;46.00;100471.30;1697798;83;20415;-68
2021/04/11 04:39:46;;;;;;;;;;;;;;;4.05;45.96;100471.58;1688566;84;20198;-68
2021/04/11 04:42:37;;;;;;;;;;;;;;;4.24;45.56;100473.15;1728237;82;20454;-68
2021/04/11 04:45:12;;;;;;;;;;;;;;;4.52;45.18;100475.48;1707732;83;20149;-68
2021/04/11 04:48:03;;;;;;;;;;;;;;;4.75;44.88;100469.73;1701355;84;20237;-68
2021/04/11 04:50:44;;;;;;;;;;;;;;;5.04;44.63;100467.13;1706569;84;20145;-68
2021/04/11 04:53:23;;;;;;;;;;;;;;;5.38;43.75;100467.67;1647833;84;20227;-67
2021/04/11 04:55:56;;;;;;;;;;;;;;;5.73;43.04;100473.33;1690262;84;20239;-67
2021/04/11 04:58:28;;;;;;;;;;;;;;;6.09;42.25;100471.09;1689630;84;20156;-67
2021/04/11 05:01:08;;;;;;;;;;;;;;;6.49;41.38;100471.94;1704336;84;20408;-67
2021/04/11 05:03:41;;;;;;;;;;;;;;;6.95;40.56;100471.42;1665022;83;20446;-67
2021/04/11 05:06:15;;;;;;;;;;;;;;;7.46;39.72;100470.52;1692606;83;20238;-68
2021/04/11 05:08:54;;;;;;;;;;;;;;;7.95;39.34;100477.53;1732786;82;20497;-68
2021/04/11 05:11:35;;;;;;;;;;;;;;;8.43;38.49;100478.00;1675367;83;20164;-68
2021/04/11 05:14:07;;;;;;;;;;;;;;;8.88;37.65;100478.58;1707654;84;20141;-68
2021/04/11 05:16:56;;;;;;;;;;;;;;;9.32;36.60;100480.91;1713146;83;20464;-68
2021/04/11 05:19:43;;;;;;;;;;;;;;;9.77;35.83;100484.80;1693354;82;20143;-68
2021/04/11 05:22:19;;;;;;;;;;;;;;;10.26;35.22;100486.09;1709802;82;20257;-68
2021/04/11 05:24:49;;;;;;;;;;;;;;;10.75;34.13;100483.83;1710305;83;20200;-69
2021/04/11 05:27:22;;;;;;;;;;;;;;;11.19;33.23;100480.52;1712751;83;20145;-67
2021/04/11 05:30:20;;;;;;;;;;;;;;;11.65;32.35;100485.78;1699361;83;20161;-68
2021/04/11 05:32:49;;;;;;;;;;;;;;;12.15;31.70;100487.55;1697475;84;20417;-69
2021/04/11 05:35:17;;;;;;;;;;;;;;;12.74;30.32;100490.20;1701117;83;20155;-68
2021/04/11 05:38:22;;;;;;;;;;;;;;;13.25;29.70;100493.41;1716762;82;20138;-68
2021/04/11 05:40:58;;;;;;;;;;;;;;;13.72;28.56;100484.87;1688118;85;20195;-68
2021/04/11 05:43:39;;;;;;;;;;;;;;;14.20;27.71;100487.38;1689755;83;20149;-68
2021/04/11 05:46:21;;;;;;;;;;;;;;;14.67;27.20;100485.80;1696590;83;20130;-69
2021/04/11 05:48:56;;;;;;;;;;;;;;;15.13;26.03;100491.26;1729548;83;21132;-68
2021/04/11 05:51:39;;;;;;;;;;;;;;;15.64;25.54;100485.98;1705370;83;20422;-68
2021/04/11 05:54:19;;;;;;;;;;;;;;;16.28;25.03;100493.48;1730640;82;20163;-68
2021/04/11 05:56:50;;;;;;;;;;;;;;;16.97;24.10;100492.64;1706261;84;20132;-68
2021/04/11 05:59:38;;;;;;;;;;;;;;;17.62;23.58;100492.94;1722809;82;20130;-68
2021/04/11 06:02:09;;;;;;;;;;;;;;;18.19;22.98;100490.96;1704317;83;20232;-68
2021/04/11 06:04:46;;;;;;;;;;;;;;;18.83;21.98;100499.17;1681693;84;20165;-69
2021/04/11 06:07:22;;;;;;;;;;;;;;;19.39;21.03;100497.74;1706597;84;20148;-68
2021/04/11 06:10:02;;;;;;;;;;;;;;;19.89;20.66;100496.61;1706767;84;20154;-68
2021/04/11 06:12:40;;;;;;;;;;;;;;;20.50;20.08;100505.59;1704118;83;20248;-68
2021/04/11 06:15:14;;;;;;;;;;;;;;;21.18;19.42;100502.40;1688625;83;20160;-68
2021/04/11 06:17:43;;;;;;;;;;;;;;;21.76;18.83;100499.39;1697288;83;20132;-69
2021/04/11 06:20:12;;;;;;;;;;;;;;;22.30;18.16;100492.31;1716352;83;20469;-69
2021/04/11 06:22:52;;;;;;;;;;;;;;;22.81;17.68;100493.55;1733317;82;20158;-68
2021/04/11 06:25:30;;;;;;;;;;;;;;;23.40;17.30;100499.91;1703304;83;20151;-70
2021/04/11 06:28:20;;;;;;;;;;;;;;;24.03;16.71;100492.45;1713449;84;20243;-69
2021/04/11 06:30:55;;;;;;;;;;;;;;;24.51;16.16;100494.63;1705999;82;20168;-69
2021/04/11 06:33:36;;;;;;;;;;;;;;;24.84;15.99;100499.46;1695861;83;20132;-70
2021/04/11 06:36:15;;;;;;;;;;;;;;;25.22;15.30;100503.36;1700674;83;20248;-69
2021/04/11 06:38:45;;;;;;;;;;;;;;;25.41;14.95;100503.39;1709608;83;20169;-69
2021/04/11 06:41:23;;;;;;;;;;;;;;;25.68;14.94;100509.30;1711188;83;20133;-69
2021/04/11 06:44:23;;;;;;;;;;;;;;;26.11;14.39;100498.33;1890494;74;20483;-70
2021/04/11 06:47:03;;;;;;;;;;;;;;;26.29;14.24;100499.31;1834819;77;20178;-69
2021/04/11 06:49:59;;;;;;;;;;;;;;;26.54;13.90;100506.73;1861079;77;20150;-69
2021/04/11 06:52:48;;;;;;;;;;;;;;;26.64;13.94;100501.30;1845330;77;20131;-69
2021/04/11 06:55:31;;;;;;;;;;;;;;;26.89;13.82;100511.37;1841525;77;20134;-69
2021/04/11 06:58:24;;;;;;;;;;;;;;;27.42;13.54;100507.39;1866483;77;20185;-69
2021/04/11 07:01:06;;;;;;;;;;;;;;;27.89;13.17;100511.36;1867489;77;20433;-68
2021/04/11 07:03:48;;;;;;;;;;;;;;;28.32;12.77;100517.27;1865195;77;20131;-68
2021/04/11 07:06:51;;;;;;;;;;;;;;;28.52;12.39;100519.01;1831314;77;20134;-68
2021/04/11 07:09:47;;;;;;;;;;;;;;;28.70;12.37;100516.59;1867404;77;20173;-69
2021/04/11 07:12:43;;;;;;;;;;;;;;;29.10;11.91;100522.34;1867147;77;20169;-68
2021/04/11 07:15:34;;;;;;;;;;;;;;;29.41;11.82;100528.24;1859474;77;20154;-69
2021/04/11 07:18:15;;;;;;;;;;;;;;;29.70;11.64;100530.77;1824890;77;20139;-69
2021/04/11 07:20:59;;;;;;;;;;;;;;;29.70;11.21;100528.03;1834245;77;20126;-69
2021/04/11 07:23:55;;;;;;;;;;;;;;;29.52;11.37;100527.30;1839576;77;20154;-69
2021/04/11 07:26:29;;;;;;;;;;;;;;;29.61;11.25;100535.86;1844270;77;20135;-68
2021/04/11 07:29:12;;;;;;;;;;;;;;;29.89;10.92;100531.27;1865243;77;20130;-69
2021/04/11 07:32:13;;;;;;;;;;;;;;;30.11;10.86;100529.88;1841141;77;20144;-68
2021/04/11 07:35:08;;;;;;;;;;;;;;;30.23;10.41;100529.19;1850750;77;20405;-68
2021/04/11 07:37:51;;;;;;;;;;;;;;;30.24;10.27;100529.45;1815469;77;20138;-68
2021/04/11 07:40:23;;;;;;;;;;;;;;;30.36;10.14;100534.80;1847509;77;20184;-69
2021/04/11 07:43:03;;;;;;;;;;;;;;;30.35;10.01;100533.13;1866650;77;20197;-68
2021/04/11 07:45:42;;;;;;;;;;;;;;;30.23;10.13;100539.28;1834816;77;20139;-68
2021/04/11 07:48:30;;;;;;;;;;;;;;;30.38;10.21;100527.17;1862671;77;20131;-69
2021/04/11 07:51:07;;;;;;;;;;;;;;;30.19;9.70;100535.70;1849403;77;20225;-69
2021/04/11 07:54:02;;;;;;;;;;;;;;;29.86;10.38;100534.53;1781843;78;20224;-69
2021/04/11 07:56:51;;;;;;;;;;;;;;;29.88;10.28;100533.19;1751570;81;20214;-69
2021/04/11 07:59:48;;;;;;;;;;;;;;;30.23;10.10;100526.45;1770775;80;20127;-69
2021/04/11 08:02:30;;;;;;;;;;;;;;;30.85;9.32;100533.81;1773375;80;20146;-69
2021/04/11 08:05:01;;;;;;;;;;;;;;;30.82;9.01;100541.97;1780510;80;20256;-69
2021/04/11 08:07:52;;;;;;;;;;;;;;;30.57;9.11;100532.50;1797179;78;20161;-69
2021/04/11 08:10:55;;;;;;;;;;;;;;;30.06;9.58;100539.36;1782403;80;20159;-68
2021/04/11 08:13:43;;;;;;;;;;;;;;;29.85;10.01;100532.32;1689199;84;20245;-68
2021/04/11 08:16:16;;;;;;;;;;;;;;;30.13;9.60;100524.98;1776726;80;20219;-69
2021/04/11 08:19:01;;;;;;;;;;;;;;;30.55;9.78;100529.77;1783010;80;20243;-68
2021/04/11 08:21:43;;;;;;;;;;;;;;;30.75;9.22;100529.92;1777200;78;20155;-67
2021/04/11 08:24:29;;;;;;;;;;;;;;;30.88;9.39;100530.53;1772117;80;20333;-68
2021/04/11 08:27:09;;;;;;;;;;;;;;;31.02;9.23;100515.37;1819981;78;20224;-68
2021/04/11 08:30:02;;;;;;;;;;;;;;;31.01;9.32;100516.48;1770132;78;20128;-68
2021/04/11 08:33:08;;;;;;;;;;;;;;;31.13;9.51;100525.27;1811489;78;20152;-68
2021/04/11 08:35:47;;;;;;;;;;;;;;;31.20;8.89;100520.11;1770784;80;20155;-68
2021/04/11 08:38:53;;;;;;;;;;;;;;;31.04;9.13;100518.66;1773150;80;20148;-68
2021/04/11 08:41:51;;;;;;;;;;;;;;;31.02;9.07;100514.02;1781055;80;20427;-68
2021/04/11 08:44:25;;;;;;;;;;;;;;;30.83;9.40;100520.42;1782431;80;20226;-69
2021/04/11 08:46:59;;;;;;;;;;;;;;;30.50;9.52;100514.16;1778442;80;20154;-69
2021/04/11 08:49:53;;;;;;;;;;;;;;;30.35;9.67;100510.76;1713767;80;20128;-68
2021/04/11 08:52:42;;;;;;;;;;;;;;;30.38;9.48;100511.62;1797213;79;20266;-68
2021/04/11 08:55:20;;;;;;;;;;;;;;;30.56;9.41;100506.84;1777392;78;20208;-68
2021/04/11 08:58:10;;;;;;;;;;;;;;;30.81;9.45;100502.67;1773350;80;20151;-68
2021/04/11 09:00:50;;;;;;;;;;;;;;;31.10;9.82;100497.66;1757235;80;20406;-68
2021/04/11 09:03:39;;;;;;;;;;;;;;;31.17;9.70;100503.72;1779501;80;20207;-68
2021/04/11 09:06:32;;;;;;;;;;;;;;;31.41;9.35;100505.47;1775179;80;20174;-67
2021/04/11 09:09:24;;;;;;;;;;;;;;;31.31;9.60;100491.23;1778435;80;20239;-69
2021/04/11 09:12:05;;;;;;;;;;;;;;;31.21;9.65;100497.18;1791353;79;20154;-69
2021/04/11 09:14:53;;;;;;;;;;;;;;;31.24;9.61;100498.84;1776637;79;20182;-68
2021/04/11 09:17:37;;;;;;;;;;;;;;;31.27;9.34;100487.39;1781854;79;20238;-69
2021/04/11 09:20:28;;;;;;;;;;;;;;;31.39;9.42;100476.78;1761402;79;20474;-67
2021/04/11 09:23:20;;;;;;;;;;;;;;;31.29;9.32;100479.75;1791148;79;20405;-68
2021/04/11 09:26:04;;;;;;;;;;;;;;;31.18;8.97;100478.06;1784293;79;20164;-69
2021/04/11 09:28:55;;;;;;;;;;;;;;;30.98;8.84;100464.31;1788123;79;20134;-68
2021/04/11 09:31:40;;;;;;;;;;;;;;;30.83;9.28;100470.47;1786852;79;20252;-69
2021/04/11 09:34:20;;;;;;;;;;;;;;;30.52;9.57;100462.06;1787274;79;20242;-68
2021/04/11 09:36:59;;;;;;;;;;;;;;;30.51;9.24;100468.63;1748850;78;20152;-69
2021/04/11 09:39:31;;;;;;;;;;;;;;;30.33;9.07;100458.92;1780690;80;20145;-70
2021/04/11 09:42:30;;;;;;;;;;;;;;;30.33;9.11;100463.83;1757077;80;20419;-69
2021/04/11 09:45:03;;;;;;;;;;;;;;;30.43;9.26;100456.81;1773686;80;20151;-70
2021/04/11 09:47:40;;;;;;;;;;;;;;;30.67;9.68;100451.25;1770047;79;20213;-70
2021/04/11 09:50:24;;;;;;;;;;;;;;;30.92;9.17;100459.36;1749061;79;20151;-68
2021/04/11 09:53:18;;;;;;;;;;;;;;;30.96;8.98;100448.19;1781602;79;20159;-69
2021/04/11 09:55:50;;;;;;;;;;;;;;;30.82;9.20;100453.25;1781634;79;20451;-69
2021/04/11 09:58:27;;;;;;;;;;;;;;;30.53;8.79;100455.53;1756807;79;20150;-67
2021/04/11 10:01:04;;;;;;;;;;;;;;;30.28;9.37;100454.23;1783425;79;20147;-69
2021/04/11 10:03:45;;;;;;;;;;;;;;;30.38;9.26;100452.16;1783750;79;20135;-69
2021/04/11 10:06:30;;;;;;;;;;;;;;;30.43;9.07;100448.62;1757900;79;20139;-68
2021/04/11 10:09:35;;;;;;;;;;;;;;;30.54;9.15;100447.61;1783497;79;20130;-69
2021/04/11 10:12:18;;;;;;;;;;;;;;;30.52;8.64;100442.97;1754998;80;20168;-69
2021/04/11 10:15:14;;;;;;;;;;;;;;;30.38;9.03;100443.42;1789760;79;20147;-68
2021/04/11 10:18:10;;;;;;;;;;;;;;;30.46;8.63;100442.11;1776540;79;20172;-68
2021/04/11 10:21:08;;;;;;;;;;;;;;;30.38;9.18;100446.14;1789473;79;20127;-67
2021/04/11 10:23:57;;;;;;;;;;;;;;;30.41;8.66;100440.70;1781207;79;20431;-69
2021/04/11 10:26:49;;;;;;;;;;;;;;;30.01;8.67;100444.72;1792392;79;20154;-68
2021/04/11 10:29:20;;;;;;;;;;;;;;;29.35;8.94;100458.45;1792644;79;20151;-70
2021/04/11 10:32:06;;;;;;;;;;;;;;;29.16;9.29;100445.66;1783891;79;20127;-69
2021/04/11 10:34:44;;;;;;;;;;;;;;;28.93;9.48;100446.70;1761855;79;20139;-68
2021/04/11 10:37:28;;;;;;;;;;;;;;;28.38;9.84;100455.13;1786976;79;20155;-68
2021/04/11 10:40:34;;;;;;;;;;;;;;;28.25;10.06;100452.19;1805536;78;20121;-68
2021/04/11 10:43:34;;;;;;;;;;;;;;;28.07;10.10;100455.44;1797694;78;20339;-69
2021/04/11 10:46:20;;;;;;;;;;;;;;;27.54;10.08;100441.66;1754847;80;20159;-69
2021/04/11 10:49:12;;;;;;;;;;;;;;;26.97;10.19;100452.38;1777670;80;20242;-69
2021/04/11 10:51:58;;;;;;;;;;;;;;;26.20;10.57;100441.07;1779278;79;20163;-67
2021/04/11 10:54:32;;;;;;;;;;;;;;;25.76;11.27;100438.04;1782541;79;20135;-69
2021/04/11 10:57:14;;;;;;;;;;;;;;;25.50;11.30;100433.00;1792006;79;20153;-67
2021/04/11 10:59:58;;;;;;;;;;;;;;;25.13;10.90;100437.05;1785208;79;20506;-68
2021/04/11 11:02:49;;;;;;;;;;;;;;;24.56;11.66;100425.07;1776417;79;20242;-69
2021/04/11 11:05:48;;;;;;;;;;;;;;;24.05;11.92;100423.36;1775712;79;20216;-68
2021/04/11 11:08:38;;;;;;;;;;;;;;;23.45;12.55;100432.11;1776333;80;20155;-66
2021/04/11 11:11:32;;;;;;;;;;;;;;;23.13;12.80;100429.83;1796886;79;20135;-68
2021/04/11 11:14:33;;;;;;;;;;;;;;;23.01;12.90;100425.59;1791132;79;20242;-66
2021/04/11 11:17:20;;;;;;;;;;;;;;;22.99;12.89;100427.66;1758210;80;20271;-69
2021/04/11 11:20:26;;;;;;;;;;;;;;;22.59;13.36;100420.98;1800409;79;20230;-67
2021/04/11 11:23:18;;;;;;;;;;;;;;;22.19;14.06;100406.16;1698334;84;20251;-68
2021/04/11 11:25:52;;;;;;;;;;;;;;;22.13;13.82;100404.31;1760281;80;20266;-68
2021/04/11 11:28:30;;;;;;;;;;;;;;;22.11;14.06;100402.34;1776736;80;20151;-69
2021/04/11 11:31:19;;;;;;;;;;;;;;;21.93;14.93;100403.46;1821468;78;20137;-68
2021/04/11 11:34:11;;;;;;;;;;;;;;;21.73;14.69;100402.89;1780600;80;20163;-67
2021/04/11 11:36:42;;;;;;;;;;;;;;;21.63;14.52;100403.81;1770190;80;20143;-68
2021/04/11 11:39:40;;;;;;;;;;;;;;;21.63;13.98;100395.73;1785670;79;20143;-68
2021/04/11 11:42:29;;;;;;;;;;;;;;;21.58;13.88;100395.52;1768383;79;20230;-67
2021/04/11 11:45:24;;;;;;;;;;;;;;;21.66;14.48;100388.62;1767605;79;20127;-66
2021/04/11 11:48:12;;;;;;;;;;;;;;;21.62;14.17;100375.23;1796499;79;20414;-67
2021/04/11 11:51:04;;;;;;;;;;;;;;;21.63;13.72;100383.63;1779425;79;20245;-68
2021/04/11 11:53:47;;;;;;;;;;;;;;;21.58;13.12;100374.80;1773458;79;20159;-68
2021/04/11 11:56:25;;;;;;;;;;;;;;;21.49;13.73;100383.60;1789744;79;20163;-69
2021/04/11 11:59:20;;;;;;;;;;;;;;;21.32;13.42;100379.07;1785558;79;20147;-67
2021/04/11 12:01:58;;;;;;;;;;;;;;;21.21;13.64;100370.23;1789088;79;20131;-68
2021/04/11 12:04:45;;;;;;;;;;;;;;;21.10;13.98;100365.44;1791312;79;20513;-68
2021/04/11 12:07:36;;;;;;;;;;;;;;;21.14;14.17;100365.34;1783847;79;20174;-68
2021/04/11 12:10:26;;;;;;;;;;;;;;;21.14;14.08;100376.09;1769279;80;20143;-70
2021/04/11 12:13:15;;;;;;;;;;;;;;;21.13;13.72;100369.05;1771361;80;20184;-68
2021/04/11 12:15:55;;;;;;;;;;;;;;;21.04;13.62;100363.03;1780053;80;20147;-68
2021/04/11 12:18:28;;;;;;;;;;;;;;;20.91;13.92;100362.94;1784256;80;20234;-68
2021/04/11 12:21:21;;;;;;;;;;;;;;;20.69;14.21;100369.77;1770936;80;20126;-68
2021/04/11 12:23:59;;;;;;;;;;;;;;;20.52;14.33;100374.59;1774671;80;20182;-68
2021/04/11 12:26:59;;;;;;;;;;;;;;;20.31;14.59;100364.74;1837961;77;20237;-67
2021/04/11 12:29:29;;;;;;;;;;;;;;;20.16;15.07;100361.30;1813814;78;20322;-69
2021/04/11 12:32:05;;;;;;;;;;;;;;;20.15;15.12;100358.31;1815685;78;20125;-69
2021/04/11 12:34:57;;;;;;;;;;;;;;;20.08;15.12;100360.11;1777336;78;20136;-67
2021/04/11 12:37:28;;;;;;;;;;;;;;;19.80;14.72;100362.23;1814358;78;20149;-67
2021/04/11 12:40:21;;;;;;;;;;;;;;;19.56;14.92;100356.69;1811166;78;20399;-68
2021/04/11 12:43:05;;;;;;;;;;;;;;;19.58;14.94;100362.20;1748297;81;20236;-69
2021/04/11 12:45:39;;;;;;;;;;;;;;;19.64;15.87;100353.91;1739519;81;20299;-68
2021/04/11 12:48:16;;;;;;;;;;;;;;;19.64;15.83;100351.22;1728306;82;20422;-70
2021/04/11 12:51:02;;;;;;;;;;;;;;;19.68;16.05;100355.18;1724623;82;20395;-71
2021/04/11 12:53:46;;;;;;;;;;;;;;;19.70;15.61;100361.18;1730174;82;20417;-69
2021/04/11 12:56:15;;;;;;;;;;;;;;;19.44;15.79;100359.05;1722153;82;20245;-69
2021/04/11 12:58:55;;;;;;;;;;;;;;;19.15;15.97;100353.23;1724491;82;20231;-69
2021/04/11 13:01:32;;;;;;;;;;;;;;;18.96;16.76;100357.34;1692045;83;20160;-68
2021/04/11 13:04:06;;;;;;;;;;;;;;;18.84;16.67;100350.30;1718122;82;20151;-67
2021/04/11 13:07:09;;;;;;;;;;;;;;;18.85;16.69;100347.09;1729889;82;20156;-70
2021/04/11 13:10:09;;;;;;;;;;;;;;;18.93;17.42;100347.02;1722090;82;20128;-68
2021/04/11 13:13:03;;;;;;;;;;;;;;;19.04;17.22;100346.53;1719800;82;20140;-68
2021/04/11 13:15:38;;;;;;;;;;;;;;;18.97;17.03;100346.44;1727089;82;20160;-70
2021/04/11 13:18:27;;;;;;;;;;;;;;;18.94;16.98;100345.98;1717293;82;20158;-68
2021/04/11 13:21:14;;;;;;;;;;;;;;;18.91;16.57;100340.98;1719296;82;20910;-69
2021/04/11 13:23:58;;;;;;;;;;;;;;;18.91;16.66;100336.97;1719894;82;20242;-69
2021/04/11 13:26:46;;;;;;;;;;;;;;;18.94;16.80;100330.72;1730742;82;20160;-68
2021/04/11 13:29:30;;;;;;;;;;;;;;;18.96;17.11;100338.06;1721514;82;20403;-67
2021/04/11 13:32:16;;;;;;;;;;;;;;;18.96;16.55;100341.27;1724192;82;20143;-69
2021/04/11 13:34:54;;;;;;;;;;;;;;;18.80;16.27;100329.73;1715809;82;20251;-71
2021/04/11 13:37:21;;;;;;;;;;;;;;;18.76;16.72;100325.73;1725683;82;20411;-68
2021/04/11 13:39:51;;;;;;;;;;;;;;;18.71;16.82;100324.13;1725462;82;20572;-69
2021/04/11 13:42:26;;;;;;;;;;;;;;;18.62;17.07;100325.23;1725394;82;20462;-68
2021/04/11 13:45:09;;;;;;;;;;;;;;;18.54;17.14;100319.98;1726127;83;20439;-67
2021/04/11 13:48:03;;;;;;;;;;;;;;;18.51;17.44;100321.16;1731415;82;20143;-67
2021/04/11 13:50:56;;;;;;;;;;;;;;;18.53;17.21;100326.33;1720205;83;20155;-67